createdAt,value
2019-01-14T00:00:48.845Z,26.10
2019-01-14T00:03:18.398Z,36.77
2019-01-14T00:05:47.774Z,33.07
2019-01-14T00:08:17.139Z,30.73
2019-01-14T00:10:46.500Z,29.90
2019-01-14T00:13:15.533Z,33.77
2019-01-14T00:15:44.451Z,30.70
2019-01-14T00:18:13.372Z,28.77
2019-01-14T00:20:42.299Z,34.97
2019-01-14T00:23:11.565Z,36.33
2019-01-14T00:25:40.589Z,33.37
2019-01-14T00:28:09.510Z,31.30
2019-01-14T00:30:38.763Z,32.43
2019-01-14T00:33:08.096Z,29.13
2019-01-14T00:35:37.111Z,24.27
2019-01-14T00:38:06.045Z,25.07
2019-01-14T00:40:34.963Z,28.47
2019-01-14T00:43:04.075Z,30.10
2019-01-14T00:45:33.320Z,22.77
2019-01-14T00:48:02.662Z,24.30
2019-01-14T00:50:32.020Z,25.60
2019-01-14T00:53:01.058Z,20.43
2019-01-14T00:55:29.983Z,21.13
2019-01-14T00:57:58.922Z,20.83
2019-01-14T01:00:27.918Z,25.70
2019-01-14T01:02:56.839Z,18.70
2019-01-14T01:05:26.083Z,21.17
2019-01-14T01:07:55.100Z,21.87
2019-01-14T01:10:24.036Z,19.50
2019-01-14T01:12:53.295Z,17.37
2019-01-14T01:15:22.641Z,22.53
2019-01-14T01:17:51.654Z,19.20
2019-01-14T01:20:21.125Z,21.63
2019-01-14T01:22:50.187Z,20.80
2019-01-14T01:25:19.184Z,22.70
2019-01-14T01:27:48.138Z,19.60
2019-01-14T01:30:17.245Z,20.73
2019-01-14T01:32:46.156Z,18.10
2019-01-14T01:35:15.257Z,19.73
2019-01-14T01:37:44.182Z,18.20
2019-01-14T01:40:17.786Z,15.07
2019-01-14T01:42:47.384Z,21.73
2019-01-14T01:45:16.497Z,17.87
2019-01-14T01:47:45.927Z,15.27
2019-01-14T01:50:16.792Z,16.23
2019-01-14T01:52:45.867Z,15.67
2019-01-14T01:55:15.363Z,15.20
2019-01-14T01:57:44.387Z,17.47
2019-01-14T02:00:14.841Z,19.13
2019-01-14T02:02:44.066Z,12.80
2019-01-14T02:05:13.454Z,13.17
2019-01-14T02:07:42.786Z,15.83
2019-01-14T02:10:18.572Z,18.53
2019-01-14T02:12:47.564Z,18.10
2019-01-14T02:15:17.519Z,13.57
2019-01-14T02:17:46.867Z,13.67
2019-01-14T02:20:16.851Z,10.60
2019-01-14T02:22:45.850Z,16.13
2019-01-14T02:25:15.363Z,13.80
2019-01-14T02:27:44.274Z,16.47
2019-01-14T02:30:18.456Z,12.63
2019-01-14T02:32:47.868Z,13.73
2019-01-14T02:35:16.888Z,16.83
2019-01-14T02:37:46.271Z,16.93
2019-01-14T02:40:16.268Z,17.83
2019-01-14T02:42:45.184Z,13.30
2019-01-14T02:45:14.873Z,14.27
2019-01-14T02:47:43.859Z,14.93
2019-01-14T02:50:13.684Z,21.50
2019-01-14T02:52:42.639Z,17.03
2019-01-14T02:55:12.052Z,14.53
2019-01-14T02:57:41.399Z,17.80
2019-01-14T03:00:12.025Z,18.93
2019-01-14T03:02:40.951Z,18.30
2019-01-14T03:05:09.930Z,19.20
2019-01-14T03:07:38.868Z,22.57
2019-01-14T03:10:10.376Z,20.80
2019-01-14T03:12:39.720Z,17.63
2019-01-14T03:15:10.157Z,19.63
2019-01-14T03:17:39.085Z,15.03
2019-01-14T03:20:09.484Z,21.27
2019-01-14T03:22:38.487Z,15.40
2019-01-14T03:25:07.889Z,13.83
2019-01-14T03:27:36.799Z,15.70
2019-01-14T03:30:07.656Z,15.25
2019-01-14T03:32:36.609Z,21.87
2019-01-14T03:35:07.243Z,19.27
2019-01-14T03:37:36.263Z,16.33
2019-01-14T03:40:08.956Z,16.20
2019-01-14T03:42:37.965Z,17.03
2019-01-14T03:45:07.383Z,20.80
2019-01-14T03:47:36.311Z,15.50
2019-01-14T03:50:07.142Z,13.65
2019-01-14T03:52:36.073Z,12.97
2019-01-14T03:55:07.194Z,9.40
2019-01-14T03:57:36.211Z,17.40
2019-01-14T04:00:10.727Z,18.67
2019-01-14T04:02:39.680Z,14.80
2019-01-14T04:05:09.087Z,12.17
2019-01-14T04:07:38.007Z,8.60
2019-01-14T04:10:08.705Z,7.87
2019-01-14T04:12:37.641Z,7.83
2019-01-14T04:15:08.999Z,11.30
2019-01-14T04:17:38.043Z,7.27
2019-01-14T04:20:08.452Z,9.97
2019-01-14T04:22:37.363Z,7.70
2019-01-14T04:25:07.483Z,11.60
2019-01-14T04:27:36.482Z,12.20
2019-01-14T04:30:09.907Z,15.95
2019-01-14T04:32:39.156Z,5.10
2019-01-14T04:35:09.231Z,14.93
2019-01-14T04:37:38.176Z,11.13
2019-01-14T04:40:11.030Z,13.83
2019-01-14T04:42:39.992Z,6.97
2019-01-14T04:45:10.272Z,14.43
2019-01-14T04:47:39.159Z,11.40
2019-01-14T04:50:09.654Z,9.77
2019-01-14T04:52:38.583Z,8.97
2019-01-14T04:55:07.777Z,14.80
2019-01-14T04:57:37.104Z,11.13
2019-01-14T05:00:10.549Z,14.33
2019-01-14T05:02:39.813Z,8.73
2019-01-14T05:05:09.559Z,12.00
2019-01-14T05:07:38.612Z,15.33
2019-01-14T05:10:09.119Z,10.50
2019-01-14T05:12:38.040Z,9.33
2019-01-14T05:15:08.432Z,8.87
2019-01-14T05:17:37.363Z,18.40
2019-01-14T05:20:10.770Z,14.97
2019-01-14T05:22:40.035Z,9.23
2019-01-14T05:25:09.524Z,6.70
2019-01-14T05:27:38.547Z,15.17
2019-01-14T05:30:11.726Z,15.17
2019-01-14T05:32:40.987Z,17.13
2019-01-14T05:35:10.463Z,12.93
2019-01-14T05:37:39.741Z,14.57
2019-01-14T05:40:12.994Z,16.50
2019-01-14T05:42:41.950Z,13.93
2019-01-14T05:45:10.953Z,17.63
2019-01-14T05:47:39.947Z,14.80
2019-01-14T05:50:13.997Z,14.17
2019-01-14T05:52:43.006Z,14.07
2019-01-14T05:55:12.814Z,8.83
2019-01-14T05:57:41.740Z,14.00
2019-01-14T06:00:12.197Z,16.13
2019-01-14T06:02:41.125Z,16.83
2019-01-14T06:05:10.048Z,9.90
2019-01-14T06:07:44.865Z,13.47
2019-01-14T06:10:09.871Z,15.97
2019-01-14T06:12:39.128Z,15.50
2019-01-14T06:15:09.807Z,13.00
2019-01-14T06:17:38.726Z,11.37
2019-01-14T06:20:09.193Z,14.53
2019-01-14T06:22:38.115Z,14.93
2019-01-14T06:25:08.835Z,10.50
2019-01-14T06:27:37.780Z,9.43
2019-01-14T06:30:08.226Z,13.37
2019-01-14T06:32:37.141Z,12.70
2019-01-14T06:35:06.122Z,10.70
2019-01-14T06:37:35.349Z,11.00
2019-01-14T06:40:06.938Z,15.40
2019-01-14T06:42:35.841Z,13.43
2019-01-14T06:45:06.344Z,15.37
2019-01-14T06:47:35.253Z,11.03
2019-01-14T06:50:08.745Z,10.10
2019-01-14T06:52:37.654Z,10.33
2019-01-14T06:55:07.721Z,16.30
2019-01-14T06:57:36.748Z,14.77
2019-01-14T07:00:12.114Z,16.60
2019-01-14T07:02:41.510Z,15.77
2019-01-14T07:05:11.353Z,14.33
2019-01-14T07:07:40.344Z,16.80
2019-01-14T07:10:10.799Z,16.00
2019-01-14T07:12:45.008Z,13.40
2019-01-14T07:15:14.085Z,21.43
2019-01-14T07:17:43.318Z,13.90
2019-01-14T07:20:13.384Z,15.67
2019-01-14T07:22:52.246Z,9.13
2019-01-14T07:25:21.501Z,10.73
2019-01-14T07:27:50.503Z,19.03
2019-01-14T07:30:20.486Z,10.63
2019-01-14T07:32:49.721Z,11.20
2019-01-14T07:35:19.298Z,9.00
2019-01-14T07:37:48.361Z,9.10
2019-01-14T07:40:38.076Z,16.07
2019-01-14T07:43:07.321Z,15.80
2019-01-14T07:45:36.317Z,9.73
2019-01-14T07:48:05.229Z,12.33
2019-01-14T07:50:34.149Z,7.33
2019-01-14T07:53:03.444Z,8.63
2019-01-14T07:55:32.440Z,12.83
2019-01-14T07:58:01.688Z,12.90
2019-01-14T08:00:31.016Z,9.13
2019-01-14T08:03:00.333Z,9.03
2019-01-14T08:05:29.653Z,6.40
2019-01-14T08:07:58.984Z,7.37
2019-01-14T08:10:28.301Z,6.40
2019-01-14T08:12:57.633Z,9.10
2019-01-14T08:15:26.962Z,7.93
2019-01-14T08:17:56.281Z,7.03
2019-01-14T08:20:25.605Z,7.23
2019-01-14T08:22:54.933Z,11.53
2019-01-14T08:25:24.329Z,11.67
2019-01-14T08:27:53.663Z,7.97
2019-01-14T08:30:23.629Z,5.40
2019-01-14T08:32:52.952Z,6.20
2019-01-14T08:35:22.361Z,8.83
2019-01-14T08:37:51.669Z,10.70
2019-01-14T08:40:21.000Z,11.87
2019-01-14T08:42:50.396Z,10.00
2019-01-14T08:45:19.781Z,8.13
2019-01-14T08:47:49.114Z,12.40
2019-01-14T08:50:19.091Z,8.40
2019-01-14T08:52:48.541Z,11.33
2019-01-14T08:55:18.055Z,8.03
2019-01-14T08:57:54.209Z,5.40
2019-01-14T09:00:19.921Z,7.10
2019-01-14T09:02:49.322Z,15.20
2019-01-14T09:05:18.711Z,6.83
2019-01-14T09:07:48.024Z,9.53
2019-01-14T09:10:22.371Z,7.93
2019-01-14T09:12:51.860Z,10.63
2019-01-14T09:15:21.189Z,11.33
2019-01-14T09:17:50.589Z,7.33
2019-01-14T09:20:21.545Z,4.07
2019-01-14T09:22:50.938Z,13.70
2019-01-14T09:25:20.326Z,9.67
2019-01-14T09:27:49.645Z,8.37
2019-01-14T09:30:21.114Z,7.43
2019-01-14T09:33:09.783Z,5.87
2019-01-14T09:35:39.106Z,10.37
2019-01-14T09:38:08.539Z,11.60
2019-01-14T09:40:37.854Z,6.90
2019-01-14T09:43:07.270Z,14.47
2019-01-14T09:45:36.598Z,9.77
2019-01-14T09:48:05.930Z,6.83
2019-01-14T09:50:35.358Z,11.20
2019-01-14T09:53:04.750Z,6.37
2019-01-14T09:55:34.081Z,8.33
2019-01-14T09:58:03.465Z,11.17
2019-01-14T10:00:32.796Z,8.00
2019-01-14T10:03:07.346Z,10.87
2019-01-14T10:05:36.774Z,10.70
2019-01-14T10:08:06.098Z,7.07
2019-01-14T10:10:35.426Z,10.10
2019-01-14T10:13:04.821Z,13.53
2019-01-14T10:15:34.157Z,9.20
2019-01-14T10:18:03.925Z,9.43
2019-01-14T10:20:33.247Z,6.50
2019-01-14T10:23:02.642Z,10.53
2019-01-14T10:25:33.514Z,11.03
2019-01-14T10:28:03.077Z,8.07
2019-01-14T10:30:32.397Z,6.53
2019-01-14T10:33:01.726Z,7.10
2019-01-14T10:35:31.045Z,8.03
2019-01-14T10:38:00.374Z,7.07
2019-01-14T10:40:29.702Z,10.80
2019-01-14T10:42:59.022Z,4.63
2019-01-14T10:45:28.368Z,5.93
2019-01-14T10:47:57.687Z,6.93
2019-01-14T10:50:27.073Z,3.93
2019-01-14T10:52:56.390Z,8.43
2019-01-14T10:55:25.786Z,8.50
2019-01-14T10:57:55.109Z,4.90
2019-01-14T11:00:43.777Z,6.17
2019-01-14T11:03:13.274Z,7.57
2019-01-14T11:05:42.670Z,9.87
2019-01-14T11:08:11.994Z,6.80
2019-01-14T11:10:41.323Z,7.03
2019-01-14T11:13:10.654Z,6.17
2019-01-14T11:15:39.982Z,5.23
2019-01-14T11:18:09.319Z,8.07
2019-01-14T11:20:38.645Z,3.87
2019-01-14T11:23:07.962Z,7.10
2019-01-14T11:25:37.285Z,6.83
2019-01-14T11:28:06.615Z,6.63
2019-01-14T11:30:35.953Z,4.50
2019-01-14T11:33:05.522Z,5.60
2019-01-14T11:35:36.489Z,2.90
2019-01-14T11:38:05.948Z,4.23
2019-01-14T11:40:54.677Z,3.60
2019-01-14T11:43:24.005Z,2.83
2019-01-14T11:45:53.330Z,2.13
2019-01-14T11:48:22.653Z,3.63
2019-01-14T11:50:51.977Z,4.03
2019-01-14T11:53:21.301Z,3.23
2019-01-14T11:55:50.642Z,5.47
2019-01-14T11:58:19.961Z,7.87
2019-01-14T12:00:49.294Z,5.00
2019-01-14T12:03:18.601Z,7.87
2019-01-14T12:05:47.930Z,5.50
2019-01-14T12:08:17.258Z,8.03
2019-01-14T12:10:46.584Z,4.17
2019-01-14T12:13:15.902Z,4.57
2019-01-14T12:15:45.221Z,5.00
2019-01-14T12:18:14.550Z,6.27
2019-01-14T12:20:44.044Z,6.57
2019-01-14T12:23:13.611Z,6.07
2019-01-14T12:25:42.941Z,6.30
2019-01-14T12:28:12.297Z,5.73
2019-01-14T12:30:41.906Z,4.77
2019-01-14T12:33:11.291Z,6.67
2019-01-14T12:35:40.727Z,4.77
2019-01-14T12:38:10.105Z,7.03
2019-01-14T12:40:39.434Z,4.23
2019-01-14T12:43:08.770Z,6.50
2019-01-14T12:45:38.084Z,5.87
2019-01-14T12:48:07.483Z,9.30
2019-01-14T12:50:36.821Z,7.17
2019-01-14T12:53:06.158Z,6.07
2019-01-14T12:55:35.484Z,10.20
2019-01-14T12:58:05.281Z,5.67
2019-01-14T13:00:34.607Z,7.30
2019-01-14T13:03:04.092Z,7.63
2019-01-14T13:05:33.562Z,5.57
2019-01-14T13:08:02.890Z,5.97
2019-01-14T13:10:32.205Z,6.63
2019-01-14T13:13:01.562Z,8.73
2019-01-14T13:15:30.888Z,2.67
2019-01-14T13:18:05.239Z,5.10
2019-01-14T13:20:31.244Z,2.53
2019-01-14T13:23:00.587Z,3.67
2019-01-14T13:25:29.917Z,2.37
2019-01-14T13:28:18.581Z,2.80
2019-01-14T13:30:47.919Z,4.87
2019-01-14T13:33:17.237Z,5.03
2019-01-14T13:35:46.574Z,4.37
2019-01-14T13:38:15.899Z,10.23
2019-01-14T13:40:45.235Z,7.37
2019-01-14T13:43:14.547Z,5.87
2019-01-14T13:45:44.045Z,4.07
2019-01-14T13:48:13.385Z,6.00
2019-01-14T13:50:42.712Z,8.73
2019-01-14T13:53:12.038Z,4.80
2019-01-14T13:55:41.359Z,8.63
2019-01-14T13:58:10.690Z,10.40
2019-01-14T14:00:40.018Z,7.60
2019-01-14T14:03:09.346Z,8.30
2019-01-14T14:05:38.680Z,5.93
2019-01-14T14:08:08.074Z,6.23
2019-01-14T14:10:37.539Z,7.60
2019-01-14T14:13:06.862Z,6.23
2019-01-14T14:15:36.181Z,8.50
2019-01-14T14:18:05.673Z,7.20
2019-01-14T14:20:35.006Z,6.73
2019-01-14T14:23:04.498Z,8.67
2019-01-14T14:25:33.829Z,10.23
2019-01-14T14:28:03.156Z,6.33
2019-01-14T14:30:52.753Z,4.57
2019-01-14T14:33:22.094Z,7.90
2019-01-14T14:35:51.423Z,8.93
2019-01-14T14:38:20.751Z,8.90
2019-01-14T14:40:50.075Z,4.97
2019-01-14T14:43:19.401Z,10.27
2019-01-14T14:45:48.746Z,12.80
2019-01-14T14:48:18.077Z,11.40
2019-01-14T14:50:47.422Z,10.10
2019-01-14T14:53:16.746Z,8.07
2019-01-14T14:55:46.081Z,9.80
2019-01-14T14:58:15.609Z,8.67
2019-01-14T15:00:45.021Z,10.33
2019-01-14T15:03:14.342Z,8.17
2019-01-14T15:05:43.668Z,10.47
2019-01-14T15:08:13.002Z,8.17
2019-01-14T15:10:42.323Z,8.47
2019-01-14T15:13:11.650Z,14.67
2019-01-14T15:15:42.530Z,9.57
2019-01-14T15:18:11.880Z,10.93
2019-01-14T15:20:41.193Z,7.20
2019-01-14T15:23:10.522Z,10.10
2019-01-14T15:25:39.850Z,9.03
2019-01-14T15:28:09.190Z,9.57
2019-01-14T15:30:38.502Z,9.13
2019-01-14T15:33:07.833Z,6.97
2019-01-14T15:35:37.187Z,10.70
2019-01-14T15:38:06.506Z,9.63
2019-01-14T15:40:35.857Z,13.30
2019-01-14T15:43:05.215Z,9.73
2019-01-14T15:45:34.660Z,12.07
2019-01-14T15:48:04.059Z,6.37
2019-01-14T15:50:33.430Z,13.40
2019-01-14T15:53:02.785Z,11.10
2019-01-14T15:55:32.097Z,10.80
2019-01-14T15:58:01.445Z,14.07
2019-01-14T16:00:30.769Z,12.53
2019-01-14T16:03:00.101Z,11.33
2019-01-14T16:05:29.491Z,11.20
2019-01-14T16:07:58.812Z,8.93
2019-01-14T16:10:28.210Z,9.43
2019-01-14T16:12:57.599Z,12.77
2019-01-14T16:15:26.945Z,11.37
2019-01-14T16:17:56.337Z,11.30
2019-01-14T16:20:25.739Z,11.53
2019-01-14T16:22:55.096Z,7.90
2019-01-14T16:25:24.438Z,12.83
2019-01-14T16:27:53.821Z,11.90
2019-01-14T16:30:24.226Z,9.63
2019-01-14T16:32:53.555Z,6.63
2019-01-14T16:35:22.906Z,10.73
2019-01-14T16:37:52.229Z,9.33
2019-01-14T16:40:21.555Z,11.03
2019-01-14T16:42:50.909Z,11.70
2019-01-14T16:45:22.283Z,9.80
2019-01-14T16:47:51.605Z,12.23
2019-01-14T16:50:21.082Z,10.30
2019-01-14T16:52:50.433Z,11.73
2019-01-14T16:55:21.402Z,8.13
2019-01-14T16:57:50.754Z,15.83
2019-01-14T17:00:20.096Z,12.13
2019-01-14T17:02:49.419Z,10.33
2019-01-14T17:05:18.857Z,13.37
2019-01-14T17:07:48.179Z,9.00
2019-01-14T17:10:17.505Z,11.50
2019-01-14T17:12:46.870Z,15.27
2019-01-14T17:15:16.202Z,12.80
2019-01-14T17:17:45.517Z,8.97
2019-01-14T17:20:19.753Z,11.93
2019-01-14T17:22:49.147Z,8.30
2019-01-14T17:25:18.470Z,12.13
2019-01-14T17:27:47.834Z,17.57
2019-01-14T17:30:17.330Z,21.83
2019-01-14T17:32:46.649Z,9.57
2019-01-14T17:35:16.082Z,12.90
2019-01-14T17:37:45.413Z,12.13
2019-01-14T17:40:19.884Z,13.87
2019-01-14T17:42:49.246Z,11.77
2019-01-14T17:45:18.568Z,13.57
2019-01-14T17:47:47.970Z,30.27
2019-01-14T17:50:19.241Z,11.90
2019-01-14T17:52:49.007Z,8.57
2019-01-14T17:55:18.338Z,11.30
2019-01-14T17:57:47.693Z,10.70
2019-01-14T18:00:22.726Z,14.80
2019-01-14T18:02:52.058Z,14.40
2019-01-14T18:05:21.590Z,14.37
2019-01-14T18:07:50.909Z,9.10
2019-01-14T18:10:20.562Z,12.57
2019-01-14T18:12:49.961Z,11.67
2019-01-14T18:15:19.301Z,12.13
2019-01-14T18:17:48.635Z,14.17
2019-01-14T18:20:18.739Z,15.93
2019-01-14T18:22:48.203Z,7.97
2019-01-14T18:25:17.590Z,11.43
2019-01-14T18:27:46.949Z,9.73
2019-01-14T18:30:20.591Z,13.60
2019-01-14T18:32:50.050Z,11.50
2019-01-14T18:35:19.411Z,10.50
2019-01-14T18:37:48.761Z,13.40
2019-01-14T18:40:19.064Z,15.57
2019-01-14T18:42:53.569Z,11.30
2019-01-14T18:45:22.899Z,9.37
2019-01-14T18:47:52.233Z,10.83
2019-01-14T18:50:21.837Z,13.07
2019-01-14T18:52:51.154Z,12.97
2019-01-14T18:55:20.479Z,12.43
2019-01-14T18:57:49.846Z,13.40
2019-01-14T19:00:20.834Z,13.37
2019-01-14T19:02:50.302Z,14.40
2019-01-14T19:05:20.303Z,12.10
2019-01-14T19:07:49.781Z,11.63
2019-01-14T19:10:19.253Z,17.47
2019-01-14T19:12:48.632Z,11.17
2019-01-14T19:15:19.107Z,10.53
2019-01-14T19:17:48.427Z,13.53
2019-01-14T19:20:23.610Z,12.90
2019-01-14T19:22:53.022Z,11.23
2019-01-14T19:25:22.418Z,11.47
2019-01-14T19:27:51.779Z,13.70
2019-01-14T19:30:21.745Z,11.10
2019-01-14T19:32:51.073Z,9.73
2019-01-14T19:35:20.470Z,8.47
2019-01-14T19:37:50.073Z,13.90
2019-01-14T19:40:20.332Z,17.67
2019-01-14T19:42:50.130Z,15.40
2019-01-14T19:45:20.929Z,15.17
2019-01-14T19:47:50.335Z,14.63
2019-01-14T19:50:21.434Z,17.13
2019-01-14T19:52:50.857Z,11.67
2019-01-14T19:55:20.181Z,8.07
2019-01-14T19:57:50.872Z,7.87
2019-01-14T20:00:25.589Z,13.07
2019-01-14T20:02:54.958Z,10.73
2019-01-14T20:05:24.324Z,12.67
2019-01-14T20:07:54.191Z,7.00
2019-01-14T20:10:23.532Z,12.20
2019-01-14T20:12:52.956Z,10.77
2019-01-14T20:15:22.349Z,12.33
2019-01-14T20:17:51.673Z,9.97
2019-01-14T20:20:21.026Z,8.60
2019-01-14T20:22:50.345Z,9.80
2019-01-14T20:25:19.671Z,16.00
2019-01-14T20:27:49.025Z,11.07
2019-01-14T20:30:22.372Z,16.10
2019-01-14T20:32:51.738Z,11.63
2019-01-14T20:35:21.131Z,10.37
2019-01-14T20:37:50.454Z,14.97
2019-01-14T20:40:19.786Z,11.03
2019-01-14T20:42:49.146Z,14.33
2019-01-14T20:45:18.487Z,11.87
2019-01-14T20:47:48.173Z,13.03
2019-01-14T20:50:19.565Z,13.53
2019-01-14T20:52:48.893Z,14.70
2019-01-14T20:55:18.233Z,23.03
2019-01-14T20:57:47.581Z,8.07
2019-01-14T21:00:20.879Z,12.73
2019-01-14T21:02:50.341Z,18.77
2019-01-14T21:05:20.201Z,12.83
2019-01-14T21:07:49.602Z,14.50
2019-01-14T21:10:18.997Z,15.03
2019-01-14T21:12:48.359Z,26.80
2019-01-14T21:15:17.689Z,13.33
2019-01-14T21:17:47.009Z,15.80
2019-01-14T21:20:18.601Z,11.43
2019-01-14T21:22:48.097Z,17.83
2019-01-14T21:25:17.422Z,20.83
2019-01-14T21:27:46.788Z,13.90
2019-01-14T21:30:21.534Z,18.73
2019-01-14T21:32:50.871Z,12.93
2019-01-14T21:35:20.225Z,13.53
2019-01-14T21:37:50.190Z,16.23
2019-01-14T21:40:19.521Z,11.60
2019-01-14T21:42:48.882Z,15.53
2019-01-14T21:45:18.221Z,11.77
2019-01-14T21:47:47.554Z,18.80
2019-01-14T21:50:18.642Z,14.47
2019-01-14T21:52:47.967Z,21.10
2019-01-14T21:55:19.908Z,12.87
2019-01-14T21:57:49.263Z,14.83
2019-01-14T22:00:20.997Z,15.67
2019-01-14T22:02:50.333Z,13.47
2019-01-14T22:05:19.862Z,22.13
2019-01-14T22:07:49.196Z,20.27
2019-01-14T22:10:21.274Z,13.10
2019-01-14T22:12:50.625Z,17.07
2019-01-14T22:15:20.022Z,19.97
2019-01-14T22:17:49.375Z,15.60
2019-01-14T22:20:26.229Z,15.00
2019-01-14T22:22:55.614Z,22.53
2019-01-14T22:25:24.979Z,12.30
2019-01-14T22:27:54.334Z,17.17
2019-01-14T22:30:29.269Z,17.17
2019-01-14T22:32:58.589Z,16.47
2019-01-14T22:35:27.960Z,14.83
2019-01-14T22:37:57.290Z,15.27
2019-01-14T22:40:26.625Z,17.53
2019-01-14T22:42:55.972Z,15.87
2019-01-14T22:45:25.297Z,13.23
2019-01-14T22:47:54.622Z,16.63
2019-01-14T22:50:23.991Z,17.13
2019-01-14T22:52:53.314Z,21.00
2019-01-14T22:55:22.646Z,15.83
2019-01-14T22:57:52.012Z,19.50
2019-01-14T23:00:53.745Z,15.73
2019-01-14T23:03:23.103Z,12.13
2019-01-14T23:05:52.428Z,14.90
2019-01-14T23:08:21.825Z,22.37
2019-01-14T23:10:51.182Z,10.17
2019-01-14T23:13:20.513Z,12.23
2019-01-14T23:15:49.850Z,12.80
2019-01-14T23:18:19.243Z,14.67
2019-01-14T23:20:48.578Z,11.13
2019-01-14T23:23:17.918Z,19.63
2019-01-14T23:25:47.271Z,16.70
2019-01-14T23:28:16.598Z,15.07
2019-01-14T23:30:45.925Z,18.03
2019-01-14T23:33:15.273Z,21.30
2019-01-14T23:35:44.602Z,13.37
2019-01-14T23:38:13.930Z,21.20
2019-01-14T23:40:43.304Z,14.30
2019-01-14T23:43:12.617Z,13.43
2019-01-14T23:45:41.937Z,13.03
2019-01-14T23:48:11.293Z,20.47
2019-01-14T23:50:40.623Z,15.10
2019-01-14T23:53:09.947Z,14.37
2019-01-14T23:55:39.307Z,15.03
2019-01-14T23:58:08.629Z,16.87
